AirNav   Air Wisconsin Up To $57,000 Bonus
 
 1022 users online  

FD44 Eagles Nest Aerodrome
Crescent City, Florida, USA

GOING TO CRESCENT CITY?


FAA INFORMATION EFFECTIVE 07 OCTOBER 2021

Location

FAA Identifier: FD44
Lat/Long: 29-25-37.0000N 081-36-15.0000W
29-25.616667N 081-36.250000W
29.4269444,-81.6041667
(estimated)
Elevation: 63 ft. / 19 m (estimated)
Variation: 03W (1985)
From city: 5 miles W of CRESCENT CITY, FL
Time zone: UTC -4 (UTC -5 during Standard Time)
Zip code: 32112

Airport Operations

Airport use: Private use. Permission required prior to landing
Activation date: 11/1985
Control tower: no
ARTCC: JACKSONVILLE CENTER
FSS: GAINESVILLE FLIGHT SERVICE STATION
Attendance: UNATNDD
Wind indicator: yes
Segmented circle: no

Airport Communications

WX AWOS-3 at 28J (15 nm N): 119.925 (386-312-2212)

Nearby radio navigation aids

VOR radial/distance  VOR name  Freq  Var
OMNr286/26.7ORMOND BEACH VORTAC112.6000E
SGJr210/34.8ST AUGUSTINE VOR/DME109.4006W
OCFr065/35.8OCALA VORTAC113.7000E
GNVr119/38.4GATORS VORTAC116.2004W

 
NDB name  Hdg/Dist  Freq  Var  ID
REYNOLDS182/32.533807WRYD .-. -.-- -..

Airport Services

Runway Information

Runway 18/36

Dimensions: 3200 x 100 ft. / 975 x 30 m
Surface: turf
Runway edge lights: low intensity
RUNWAY 18  RUNWAY 36
Traffic pattern: leftleft
Displaced threshold: 600 ft.no

Runway 18W/36W

Dimensions: 3300 x 125 ft. / 1006 x 38 m
Surface: water
RUNWAY 18W  RUNWAY 36W
Elevation: 43.0 ft.43.0 ft.
Traffic pattern: leftleft

Airport Ownership and Management from official FAA records

Ownership: Privately-owned
Owner: EAGLES NEST HOA
521 GEORGETOWN SHORTCUT ROAD
CRESCENT CITY, FL 32112
Phone (386) 467-3011
Manager: RICK TOLLER, PRESIDENT
521 GEORGETOWN SHORTCUT ROAD
CRESCENT CITY, FL 32112
Phone (386) 467-3011

Airport Operational Statistics

Aircraft based on the field: 22
Single engine airplanes: 20
Multi engine airplanes: 2
    

Additional Remarks

SEAPLANE BASE IS IN LAKE THAT IS LOCATED WEST OF THE TURF RY.
FOR CD CTC JACKSONVILLE APCH AT 904-741-0284.

Instrument Procedures

There are no published instrument procedures at FD44.

Some nearby airports with instrument procedures:

28J - Palatka Municipal Airport - Lt. Kay Larkin Field (15 nm N)
KFIN - Flagler Executive Airport (21 nm E)
KOMN - Ormond Beach Municipal Airport (27 nm E)
KDED - DeLand Municipal Airport-Sidney H Taylor Field (27 nm SE)
X23 - Umatilla Municipal Airport (30 nm S)
 
Loc | Ops | Rwys | IFR | FBO | Links
Com | Nav | Svcs | Stats | Notes
Area around FD44 (Eagles Nest Aerodrome)
 
Road maps at: MapQuest Bing Google
 
Aerial photo
WARNING: Photo may not be current or correct
Aerial photo of FD44 (Eagles Nest Aerodrome)
Do you have a better or more recent aerial photo of Eagles Nest Aerodrome that you would like to share? If so, please send us your photo.

 
Sectional chart

 
Airport distance calculator
Flying to Eagles Nest Aerodrome? Find the distance to fly.

From to FD44

Sunrise and sunset
Times for 19-Oct-2021
 Local
(UTC-4)
 Zulu
(UTC)
Morning civil twilight07:0711:07
Sunrise07:3111:31
Sunset18:5122:51
Evening civil twilight19:1523:15

Current date and time
Zulu (UTC)  20-Oct-2021 02:09:09
Local (UTC-4)  19-Oct-2021 22:09:09
 
METAR
K28J 
15nm N 
200155Z AUTO 00000KT 1 1/4SM BR BKN044 14/13 A3022 RMK AO2
KFIN 
21nm E 
200155Z AUTO 00000KT SCT048 18/15 A3021 RMK AO2 T01810151 PWINO TSNO
KOMN 
27nm E 
192250Z 07008KT 10SM SCT030 24/14 A3016 RMK LAST
KDED 
27nm SE 
200150Z AUTO 00000KT 10SM SCT046 18/15 A3022 RMK AO2 T01840155
TAF
KDAB 
32nm SE 
191720Z 1918/2018 06011G16KT P6SM SCT050 SCT100 SCT250 FM192300 VRB03KT P6SM SCT040 SCT250 FM201500 07009KT P6SM FEW045 SCT250
KSGJ 
36nm NE 
192116Z 1921/2018 09009KT P6SM SCT050 FM200000 09004KT P6SM FEW030 SCT250
KLEE 
38nm S 
191720Z 1918/2018 08009KT P6SM SCT050 SCT250 FM200300 VRB03KT P6SM FEW045 SCT250 FM201500 09007KT P6SM FEW050 SCT250
KGNV 
39nm NW 
191720Z 1918/2018 07010KT P6SM SCT040 SCT250 FM200000 00000KT P6SM SCT250
NOTAMs
Click for the latest NOTAMs
NOTAMs are issued by the DoD/FAA and will open in a separate window not controlled by AirNav.

 

 
 

Would you like to see your business listed on this page?

 If your business provides an interesting product or service to pilots, flight crews, aircraft, or users of the Eagles Nest Aerodrome, you should consider listing it here.  To start the listing process, click on the button below
 
Add a business
 

Other Pages about Eagles Nest Aerodrome

Update a link
 
Copyright © AirNav, LLC. All rights reserved. Privacy Policy  Contact